sensor_id;sensor_type;location;lat;lon;timestamp;temperature;humidity
43015;DHT22;28637;50.554;7.032;2023-02-04T00:03:21;7.80;99.90
43015;DHT22;28637;50.554;7.032;2023-02-04T00:08:21;7.80;99.90
43015;DHT22;28637;50.554;7.032;2023-02-04T00:13:22;7.80;99.90
43015;DHT22;28637;50.554;7.032;2023-02-04T00:18:23;7.70;99.90
43015;DHT22;28637;50.554;7.032;2023-02-04T00:23:24;7.50;99.90
43015;DHT22;28637;50.554;7.032;2023-02-04T00:28:24;7.40;99.90
43015;DHT22;28637;50.554;7.032;2023-02-04T00:33:25;7.40;99.90
43015;DHT22;28637;50.554;7.032;2023-02-04T00:38:26;7.40;99.90
43015;DHT22;28637;50.554;7.032;2023-02-04T00:43:26;7.30;99.90
43015;DHT22;28637;50.554;7.032;2023-02-04T00:48:27;7.30;99.90
43015;DHT22;28637;50.554;7.032;2023-02-04T00:53:28;7.30;99.90
43015;DHT22;28637;50.554;7.032;2023-02-04T00:58:29;7.30;99.90
43015;DHT22;28637;50.554;7.032;2023-02-04T01:03:29;7.30;99.90
43015;DHT22;28637;50.554;7.032;2023-02-04T01:08:30;7.20;99.90
43015;DHT22;28637;50.554;7.032;2023-02-04T01:13:31;7.20;99.90
43015;DHT22;28637;50.554;7.032;2023-02-04T01:18:31;7.20;99.90
43015;DHT22;28637;50.554;7.032;2023-02-04T01:23:32;7.20;99.90
43015;DHT22;28637;50.554;7.032;2023-02-04T01:28:33;7.10;99.90
43015;DHT22;28637;50.554;7.032;2023-02-04T01:33:33;7.10;99.90
43015;DHT22;28637;50.554;7.032;2023-02-04T01:38:34;7.10;99.90
43015;DHT22;28637;50.554;7.032;2023-02-04T01:43:35;7.10;99.90
43015;DHT22;28637;50.554;7.032;2023-02-04T01:48:35;7.20;99.90
43015;DHT22;28637;50.554;7.032;2023-02-04T01:53:38;7.10;99.90
43015;DHT22;28637;50.554;7.032;2023-02-04T01:58:38;7.10;99.90
43015;DHT22;28637;50.554;7.032;2023-02-04T02:03:41;7.10;99.90
43015;DHT22;28637;50.554;7.032;2023-02-04T02:08:42;7.10;99.90
43015;DHT22;28637;50.554;7.032;2023-02-04T02:13:42;7.10;99.90
43015;DHT22;28637;50.554;7.032;2023-02-04T02:18:43;7.10;99.90
43015;DHT22;28637;50.554;7.032;2023-02-04T02:23:51;7.10;99.90
43015;DHT22;28637;50.554;7.032;2023-02-04T02:28:53;7.00;99.90
43015;DHT22;28637;50.554;7.032;2023-02-04T02:33:54;7.00;99.90
43015;DHT22;28637;50.554;7.032;2023-02-04T02:38:55;7.00;99.90
43015;DHT22;28637;50.554;7.032;2023-02-04T02:43:56;7.00;99.90
43015;DHT22;28637;50.554;7.032;2023-02-04T02:48:56;6.90;99.90
43015;DHT22;28637;50.554;7.032;2023-02-04T02:53:57;6.90;99.90
43015;DHT22;28637;50.554;7.032;2023-02-04T02:59:12;7.00;99.90
43015;DHT22;28637;50.554;7.032;2023-02-04T03:04:14;7.00;99.90
43015;DHT22;28637;50.554;7.032;2023-02-04T03:09:15;7.00;99.90
43015;DHT22;28637;50.554;7.032;2023-02-04T03:14:16;7.00;99.90
43015;DHT22;28637;50.554;7.032;2023-02-04T03:19:18;7.10;99.90
43015;DHT22;28637;50.554;7.032;2023-02-04T03:24:19;7.10;99.90
43015;DHT22;28637;50.554;7.032;2023-02-04T03:29:20;7.10;99.90
43015;DHT22;28637;50.554;7.032;2023-02-04T03:34:21;7.10;99.90
43015;DHT22;28637;50.554;7.032;2023-02-04T03:39:22;7.10;99.90
43015;DHT22;28637;50.554;7.032;2023-02-04T03:44:24;7.10;99.90
43015;DHT22;28637;50.554;7.032;2023-02-04T03:49:26;7.10;99.90
43015;DHT22;28637;50.554;7.032;2023-02-04T03:54:27;7.00;99.90
43015;DHT22;28637;50.554;7.032;2023-02-04T03:59:28;6.90;99.90
43015;DHT22;28637;50.554;7.032;2023-02-04T04:04:29;7.00;99.90
43015;DHT22;28637;50.554;7.032;2023-02-04T04:09:29;7.00;99.90
43015;DHT22;28637;50.554;7.032;2023-02-04T04:14:30;7.00;99.90
43015;DHT22;28637;50.554;7.032;2023-02-04T04:19:31;7.10;99.90
43015;DHT22;28637;50.554;7.032;2023-02-04T04:24:32;7.00;99.90
43015;DHT22;28637;50.554;7.032;2023-02-04T04:29:33;7.00;99.90
43015;DHT22;28637;50.554;7.032;2023-02-04T04:34:33;7.10;99.90
43015;DHT22;28637;50.554;7.032;2023-02-04T04:39:34;7.10;99.90
43015;DHT22;28637;50.554;7.032;2023-02-04T04:44:35;7.10;99.90
43015;DHT22;28637;50.554;7.032;2023-02-04T04:49:35;7.10;99.90
43015;DHT22;28637;50.554;7.032;2023-02-04T04:54:36;7.00;99.90
43015;DHT22;28637;50.554;7.032;2023-02-04T04:59:37;7.00;99.90
43015;DHT22;28637;50.554;7.032;2023-02-04T05:04:37;7.00;99.90
43015;DHT22;28637;50.554;7.032;2023-02-04T05:09:38;7.10;99.90
43015;DHT22;28637;50.554;7.032;2023-02-04T05:14:38;7.00;99.90
43015;DHT22;28637;50.554;7.032;2023-02-04T05:19:39;6.90;99.90
43015;DHT22;28637;50.554;7.032;2023-02-04T05:24:40;7.00;99.90
43015;DHT22;28637;50.554;7.032;2023-02-04T05:29:40;7.00;99.90
43015;DHT22;28637;50.554;7.032;2023-02-04T05:34:41;7.10;99.90
43015;DHT22;28637;50.554;7.032;2023-02-04T05:39:42;7.20;99.90
43015;DHT22;28637;50.554;7.032;2023-02-04T05:44:43;7.20;99.90
43015;DHT22;28637;50.554;7.032;2023-02-04T05:49:43;7.20;99.90
43015;DHT22;28637;50.554;7.032;2023-02-04T05:54:44;7.20;99.90
43015;DHT22;28637;50.554;7.032;2023-02-04T05:59:45;7.10;99.90
43015;DHT22;28637;50.554;7.032;2023-02-04T06:04:45;7.10;99.90
43015;DHT22;28637;50.554;7.032;2023-02-04T06:09:46;7.20;99.90
43015;DHT22;28637;50.554;7.032;2023-02-04T06:14:47;7.10;99.90
43015;DHT22;28637;50.554;7.032;2023-02-04T06:19:47;7.10;99.90
43015;DHT22;28637;50.554;7.032;2023-02-04T06:24:48;7.10;99.90
43015;DHT22;28637;50.554;7.032;2023-02-04T06:29:49;7.10;99.90
43015;DHT22;28637;50.554;7.032;2023-02-04T06:34:50;7.20;99.90
43015;DHT22;28637;50.554;7.032;2023-02-04T06:39:51;7.10;99.90
43015;DHT22;28637;50.554;7.032;2023-02-04T06:44:53;7.10;99.90
43015;DHT22;28637;50.554;7.032;2023-02-04T06:49:54;7.10;99.90
43015;DHT22;28637;50.554;7.032;2023-02-04T06:54:55;7.10;99.90
43015;DHT22;28637;50.554;7.032;2023-02-04T06:59:55;7.10;99.90
43015;DHT22;28637;50.554;7.032;2023-02-04T07:04:56;7.10;99.90
43015;DHT22;28637;50.554;7.032;2023-02-04T07:09:57;7.10;99.90
43015;DHT22;28637;50.554;7.032;2023-02-04T07:14:57;7.10;99.90
43015;DHT22;28637;50.554;7.032;2023-02-04T07:19:58;7.20;99.90
43015;DHT22;28637;50.554;7.032;2023-02-04T07:24:59;7.10;99.90
43015;DHT22;28637;50.554;7.032;2023-02-04T07:29:59;7.10;99.90
43015;DHT22;28637;50.554;7.032;2023-02-04T07:35:00;7.20;99.90
43015;DHT22;28637;50.554;7.032;2023-02-04T07:40:00;7.20;99.90
43015;DHT22;28637;50.554;7.032;2023-02-04T07:45:01;7.20;99.90
43015;DHT22;28637;50.554;7.032;2023-02-04T07:50:02;7.30;99.90
43015;DHT22;28637;50.554;7.032;2023-02-04T07:55:03;7.70;99.90
43015;DHT22;28637;50.554;7.032;2023-02-04T08:00:05;7.70;99.90
43015;DHT22;28637;50.554;7.032;2023-02-04T08:05:06;7.60;99.90
43015;DHT22;28637;50.554;7.032;2023-02-04T08:10:08;7.60;99.90
43015;DHT22;28637;50.554;7.032;2023-02-04T08:15:09;7.60;99.90
43015;DHT22;28637;50.554;7.032;2023-02-04T08:20:10;7.70;99.90
43015;DHT22;28637;50.554;7.032;2023-02-04T08:25:11;7.70;99.90
43015;DHT22;28637;50.554;7.032;2023-02-04T08:30:12;7.70;99.90
43015;DHT22;28637;50.554;7.032;2023-02-04T08:35:13;7.60;99.90
43015;DHT22;28637;50.554;7.032;2023-02-04T08:40:14;7.60;99.90
43015;DHT22;28637;50.554;7.032;2023-02-04T08:45:14;7.70;99.90
43015;DHT22;28637;50.554;7.032;2023-02-04T08:50:16;7.70;99.90
43015;DHT22;28637;50.554;7.032;2023-02-04T08:55:16;7.80;99.90
43015;DHT22;28637;50.554;7.032;2023-02-04T09:00:17;7.90;99.90
43015;DHT22;28637;50.554;7.032;2023-02-04T09:05:18;7.90;99.90
43015;DHT22;28637;50.554;7.032;2023-02-04T09:10:18;7.90;99.90
43015;DHT22;28637;50.554;7.032;2023-02-04T09:15:19;8.00;99.90
43015;DHT22;28637;50.554;7.032;2023-02-04T09:20:20;8.10;99.90
43015;DHT22;28637;50.554;7.032;2023-02-04T09:25:21;8.10;99.90
43015;DHT22;28637;50.554;7.032;2023-02-04T09:30:21;8.30;99.90
43015;DHT22;28637;50.554;7.032;2023-02-04T09:35:22;8.30;99.90
43015;DHT22;28637;50.554;7.032;2023-02-04T09:40:25;8.40;99.90
43015;DHT22;28637;50.554;7.032;2023-02-04T09:45:29;8.50;99.90
43015;DHT22;28637;50.554;7.032;2023-02-04T09:50:31;8.40;99.90
43015;DHT22;28637;50.554;7.032;2023-02-04T09:55:38;8.50;99.90
43015;DHT22;28637;50.554;7.032;2023-02-04T10:00:38;8.50;99.90
43015;DHT22;28637;50.554;7.032;2023-02-04T10:05:39;8.50;99.90
43015;DHT22;28637;50.554;7.032;2023-02-04T10:10:40;8.60;99.90
43015;DHT22;28637;50.554;7.032;2023-02-04T10:15:41;8.80;99.90
43015;DHT22;28637;50.554;7.032;2023-02-04T10:20:42;8.80;99.90
43015;DHT22;28637;50.554;7.032;2023-02-04T10:25:42;8.80;99.90
43015;DHT22;28637;50.554;7.032;2023-02-04T10:30:43;8.90;99.90
43015;DHT22;28637;50.554;7.032;2023-02-04T10:35:45;8.90;99.90
43015;DHT22;28637;50.554;7.032;2023-02-04T10:40:47;8.80;99.90
43015;DHT22;28637;50.554;7.032;2023-02-04T10:45:56;8.80;99.90
43015;DHT22;28637;50.554;7.032;2023-02-04T10:50:57;8.80;99.90
43015;DHT22;28637;50.554;7.032;2023-02-04T10:55:59;8.90;99.90
43015;DHT22;28637;50.554;7.032;2023-02-04T11:01:00;9.00;99.90
43015;DHT22;28637;50.554;7.032;2023-02-04T11:06:00;9.00;99.90
43015;DHT22;28637;50.554;7.032;2023-02-04T11:11:14;8.90;99.90
43015;DHT22;28637;50.554;7.032;2023-02-04T11:21:39;9.00;99.90
43015;DHT22;28637;50.554;7.032;2023-02-04T11:26:44;9.10;99.90
43015;DHT22;28637;50.554;7.032;2023-02-04T11:41:59;9.60;99.90
43015;DHT22;28637;50.554;7.032;2023-02-04T11:47:01;9.90;99.90
43015;DHT22;28637;50.554;7.032;2023-02-04T11:52:12;10.00;99.90
43015;DHT22;28637;50.554;7.032;2023-02-04T11:57:13;10.10;99.90
43015;DHT22;28637;50.554;7.032;2023-02-04T12:02:22;10.10;99.90
43015;DHT22;28637;50.554;7.032;2023-02-04T12:07:26;10.20;99.90
43015;DHT22;28637;50.554;7.032;2023-02-04T12:12:29;10.20;99.90
43015;DHT22;28637;50.554;7.032;2023-02-04T12:17:30;10.20;99.90
43015;DHT22;28637;50.554;7.032;2023-02-04T12:22:31;10.30;99.90
43015;DHT22;28637;50.554;7.032;2023-02-04T12:27:31;10.10;99.90
43015;DHT22;28637;50.554;7.032;2023-02-04T12:32:32;10.30;99.90
43015;DHT22;28637;50.554;7.032;2023-02-04T12:37:33;10.20;99.90
43015;DHT22;28637;50.554;7.032;2023-02-04T12:42:33;10.20;99.90
43015;DHT22;28637;50.554;7.032;2023-02-04T12:47:34;10.30;99.90
43015;DHT22;28637;50.554;7.032;2023-02-04T12:52:35;10.30;99.90
43015;DHT22;28637;50.554;7.032;2023-02-04T12:57:38;10.40;99.90
43015;DHT22;28637;50.554;7.032;2023-02-04T13:02:39;10.40;99.90
43015;DHT22;28637;50.554;7.032;2023-02-04T13:07:40;10.50;99.90
43015;DHT22;28637;50.554;7.032;2023-02-04T13:12:41;10.60;99.90
43015;DHT22;28637;50.554;7.032;2023-02-04T13:17:42;10.80;99.90
43015;DHT22;28637;50.554;7.032;2023-02-04T13:22:42;11.00;99.90
43015;DHT22;28637;50.554;7.032;2023-02-04T13:27:43;11.20;99.90
43015;DHT22;28637;50.554;7.032;2023-02-04T13:32:44;11.30;99.90
43015;DHT22;28637;50.554;7.032;2023-02-04T13:37:45;11.30;99.90
43015;DHT22;28637;50.554;7.032;2023-02-04T13:42:46;11.30;99.90
43015;DHT22;28637;50.554;7.032;2023-02-04T13:47:47;11.30;99.90
43015;DHT22;28637;50.554;7.032;2023-02-04T13:52:48;11.30;99.90
43015;DHT22;28637;50.554;7.032;2023-02-04T13:57:48;11.20;99.90
43015;DHT22;28637;50.554;7.032;2023-02-04T14:02:49;11.40;99.90
43015;DHT22;28637;50.554;7.032;2023-02-04T14:07:50;11.60;99.90
43015;DHT22;28637;50.554;7.032;2023-02-04T14:12:51;11.80;99.90
43015;DHT22;28637;50.554;7.032;2023-02-04T14:17:52;11.80;99.90
43015;DHT22;28637;50.554;7.032;2023-02-04T14:22:52;11.70;99.90
43015;DHT22;28637;50.554;7.032;2023-02-04T14:27:53;11.30;99.90
43015;DHT22;28637;50.554;7.032;2023-02-04T14:32:56;11.10;99.90
43015;DHT22;28637;50.554;7.032;2023-02-04T14:37:56;11.00;99.90
43015;DHT22;28637;50.554;7.032;2023-02-04T14:42:58;10.90;99.90
43015;DHT22;28637;50.554;7.032;2023-02-04T14:47:58;10.70;99.90
43015;DHT22;28637;50.554;7.032;2023-02-04T14:53:00;10.60;99.90
43015;DHT22;28637;50.554;7.032;2023-02-04T14:58:01;10.50;99.90
43015;DHT22;28637;50.554;7.032;2023-02-04T15:03:01;10.40;99.90
43015;DHT22;28637;50.554;7.032;2023-02-04T15:08:02;10.40;99.90
43015;DHT22;28637;50.554;7.032;2023-02-04T15:13:04;10.50;99.90
43015;DHT22;28637;50.554;7.032;2023-02-04T15:18:05;10.50;99.90
43015;DHT22;28637;50.554;7.032;2023-02-04T15:23:05;10.40;99.90
43015;DHT22;28637;50.554;7.032;2023-02-04T15:28:06;10.20;99.90
43015;DHT22;28637;50.554;7.032;2023-02-04T15:33:07;10.10;99.90
43015;DHT22;28637;50.554;7.032;2023-02-04T15:38:09;10.00;99.90
43015;DHT22;28637;50.554;7.032;2023-02-04T15:43:10;9.90;99.90
43015;DHT22;28637;50.554;7.032;2023-02-04T15:48:10;9.90;99.90
43015;DHT22;28637;50.554;7.032;2023-02-04T15:53:11;9.80;99.90
43015;DHT22;28637;50.554;7.032;2023-02-04T15:58:12;9.80;99.90
43015;DHT22;28637;50.554;7.032;2023-02-04T16:03:13;9.70;99.90
43015;DHT22;28637;50.554;7.032;2023-02-04T16:08:14;9.70;99.90
43015;DHT22;28637;50.554;7.032;2023-02-04T16:13:14;9.70;99.90
43015;DHT22;28637;50.554;7.032;2023-02-04T16:18:15;9.60;99.90
43015;DHT22;28637;50.554;7.032;2023-02-04T16:23:16;9.50;99.90
43015;DHT22;28637;50.554;7.032;2023-02-04T16:28:17;9.50;99.90
43015;DHT22;28637;50.554;7.032;2023-02-04T16:33:17;9.40;99.90
43015;DHT22;28637;50.554;7.032;2023-02-04T16:38:18;9.30;99.90
43015;DHT22;28637;50.554;7.032;2023-02-04T16:43:19;9.20;99.90
43015;DHT22;28637;50.554;7.032;2023-02-04T16:48:19;9.20;99.90
43015;DHT22;28637;50.554;7.032;2023-02-04T16:53:20;9.10;99.90
43015;DHT22;28637;50.554;7.032;2023-02-04T16:58:21;9.00;99.90
43015;DHT22;28637;50.554;7.032;2023-02-04T17:03:22;9.00;99.90
43015;DHT22;28637;50.554;7.032;2023-02-04T17:08:23;9.00;99.90
43015;DHT22;28637;50.554;7.032;2023-02-04T17:13:23;8.80;99.90
43015;DHT22;28637;50.554;7.032;2023-02-04T17:18:25;8.50;99.90
43015;DHT22;28637;50.554;7.032;2023-02-04T17:23:26;8.10;99.90
43015;DHT22;28637;50.554;7.032;2023-02-04T17:28:27;8.00;99.90
43015;DHT22;28637;50.554;7.032;2023-02-04T17:33:28;7.80;99.90
43015;DHT22;28637;50.554;7.032;2023-02-04T17:38:29;7.90;99.90
43015;DHT22;28637;50.554;7.032;2023-02-04T17:43:29;8.00;99.90
43015;DHT22;28637;50.554;7.032;2023-02-04T17:48:30;8.00;99.90
43015;DHT22;28637;50.554;7.032;2023-02-04T17:53:30;7.90;99.90
43015;DHT22;28637;50.554;7.032;2023-02-04T17:58:31;7.70;99.90
43015;DHT22;28637;50.554;7.032;2023-02-04T18:03:32;7.60;99.90
43015;DHT22;28637;50.554;7.032;2023-02-04T18:08:38;7.60;99.90
43015;DHT22;28637;50.554;7.032;2023-02-04T18:13:39;7.70;99.90
43015;DHT22;28637;50.554;7.032;2023-02-04T18:18:40;7.60;99.90
43015;DHT22;28637;50.554;7.032;2023-02-04T18:23:41;7.60;99.90
43015;DHT22;28637;50.554;7.032;2023-02-04T18:28:47;7.50;99.90
43015;DHT22;28637;50.554;7.032;2023-02-04T18:33:49;7.50;99.90
43015;DHT22;28637;50.554;7.032;2023-02-04T18:38:49;7.60;99.90
43015;DHT22;28637;50.554;7.032;2023-02-04T18:43:58;7.70;99.90
43015;DHT22;28637;50.554;7.032;2023-02-04T18:49:48;7.70;99.90
43015;DHT22;28637;50.554;7.032;2023-02-04T18:54:35;7.80;99.90
43015;DHT22;28637;50.554;7.032;2023-02-04T18:59:36;7.80;99.90
43015;DHT22;28637;50.554;7.032;2023-02-04T19:04:36;7.70;99.90
43015;DHT22;28637;50.554;7.032;2023-02-04T19:09:37;7.80;99.90
43015;DHT22;28637;50.554;7.032;2023-02-04T19:14:40;7.80;99.90
43015;DHT22;28637;50.554;7.032;2023-02-04T19:20:00;7.90;99.90
43015;DHT22;28637;50.554;7.032;2023-02-04T19:25:28;7.70;99.90
43015;DHT22;28637;50.554;7.032;2023-02-04T19:35:40;7.80;99.90
43015;DHT22;28637;50.554;7.032;2023-02-04T19:40:42;7.90;99.90
43015;DHT22;28637;50.554;7.032;2023-02-04T19:45:44;8.00;99.90
43015;DHT22;28637;50.554;7.032;2023-02-04T19:50:45;8.00;99.90
43015;DHT22;28637;50.554;7.032;2023-02-04T19:55:55;7.80;99.90
43015;DHT22;28637;50.554;7.032;2023-02-04T20:01:04;7.80;99.90
43015;DHT22;28637;50.554;7.032;2023-02-04T20:06:27;7.70;99.90
43015;DHT22;28637;50.554;7.032;2023-02-04T20:21:39;7.60;99.90
43015;DHT22;28637;50.554;7.032;2023-02-04T20:26:40;7.40;99.90
43015;DHT22;28637;50.554;7.032;2023-02-04T20:31:41;7.30;99.90
43015;DHT22;28637;50.554;7.032;2023-02-04T20:36:41;7.20;99.90
43015;DHT22;28637;50.554;7.032;2023-02-04T20:41:44;7.30;99.90
43015;DHT22;28637;50.554;7.032;2023-02-04T20:46:44;7.30;99.90
43015;DHT22;28637;50.554;7.032;2023-02-04T20:51:45;7.30;99.90
43015;DHT22;28637;50.554;7.032;2023-02-04T20:56:46;7.30;99.90
43015;DHT22;28637;50.554;7.032;2023-02-04T21:01:48;7.30;99.90
43015;DHT22;28637;50.554;7.032;2023-02-04T21:06:54;7.40;99.90
43015;DHT22;28637;50.554;7.032;2023-02-04T21:11:55;7.40;99.90
43015;DHT22;28637;50.554;7.032;2023-02-04T21:16:56;7.40;99.90
43015;DHT22;28637;50.554;7.032;2023-02-04T21:21:57;7.40;99.90
43015;DHT22;28637;50.554;7.032;2023-02-04T21:26:58;7.50;99.90
43015;DHT22;28637;50.554;7.032;2023-02-04T21:31:58;7.40;99.90
43015;DHT22;28637;50.554;7.032;2023-02-04T21:36:59;7.40;99.90
43015;DHT22;28637;50.554;7.032;2023-02-04T21:42:01;7.40;99.90
43015;DHT22;28637;50.554;7.032;2023-02-04T21:47:10;7.30;99.90
43015;DHT22;28637;50.554;7.032;2023-02-04T21:52:11;7.30;99.90
43015;DHT22;28637;50.554;7.032;2023-02-04T21:57:12;7.30;99.90
43015;DHT22;28637;50.554;7.032;2023-02-04T22:02:15;7.10;99.90
43015;DHT22;28637;50.554;7.032;2023-02-04T22:07:16;6.90;99.90
43015;DHT22;28637;50.554;7.032;2023-02-04T22:12:18;6.70;99.90
43015;DHT22;28637;50.554;7.032;2023-02-04T22:17:18;6.70;99.90
43015;DHT22;28637;50.554;7.032;2023-02-04T22:22:19;6.80;99.90
43015;DHT22;28637;50.554;7.032;2023-02-04T22:27:20;6.90;99.90
43015;DHT22;28637;50.554;7.032;2023-02-04T22:32:21;7.10;99.90
43015;DHT22;28637;50.554;7.032;2023-02-04T22:37:21;7.10;99.90
43015;DHT22;28637;50.554;7.032;2023-02-04T22:42:22;7.10;99.90
43015;DHT22;28637;50.554;7.032;2023-02-04T22:47:23;7.10;99.90
43015;DHT22;28637;50.554;7.032;2023-02-04T22:52:24;7.10;99.90
43015;DHT22;28637;50.554;7.032;2023-02-04T22:57:25;7.10;99.90
43015;DHT22;28637;50.554;7.032;2023-02-04T23:02:25;7.20;99.90
43015;DHT22;28637;50.554;7.032;2023-02-04T23:07:26;7.20;99.90
43015;DHT22;28637;50.554;7.032;2023-02-04T23:12:27;7.20;99.90
43015;DHT22;28637;50.554;7.032;2023-02-04T23:17:27;7.20;99.90
43015;DHT22;28637;50.554;7.032;2023-02-04T23:22:28;7.20;99.90
43015;DHT22;28637;50.554;7.032;2023-02-04T23:27:29;7.20;99.90
43015;DHT22;28637;50.554;7.032;2023-02-04T23:32:29;7.20;99.90
43015;DHT22;28637;50.554;7.032;2023-02-04T23:37:30;7.30;99.90
43015;DHT22;28637;50.554;7.032;2023-02-04T23:42:31;7.40;99.90
43015;DHT22;28637;50.554;7.032;2023-02-04T23:47:32;7.30;99.90
43015;DHT22;28637;50.554;7.032;2023-02-04T23:52:33;7.20;99.90
43015;DHT22;28637;50.554;7.032;2023-02-04T23:57:33;7.00;99.90
